createdAt,value
2018-08-12T00:00:16.613Z,93.86
2018-08-12T00:03:19.058Z,93.56
2018-08-12T00:06:21.304Z,91.88
2018-08-12T00:09:23.688Z,94.22
2018-08-12T00:12:26.064Z,95.83
2018-08-12T00:15:28.452Z,95.45
2018-08-12T00:18:30.740Z,95.92
2018-08-12T00:21:33.060Z,94.37
2018-08-12T00:24:35.355Z,94.66
2018-08-12T00:27:37.748Z,96.41
2018-08-12T00:30:40.010Z,97.21
2018-08-12T00:33:42.402Z,97.79
2018-08-12T00:36:44.675Z,97.95
2018-08-12T00:39:47.127Z,97.28
2018-08-12T00:42:49.406Z,97.04
2018-08-12T00:45:51.701Z,97.65
2018-08-12T00:48:53.908Z,97.44
2018-08-12T00:51:56.309Z,98.12
2018-08-12T00:54:58.611Z,96.96
2018-08-12T00:58:01.958Z,97.06
2018-08-12T01:01:04.300Z,97.04
2018-08-12T01:04:06.647Z,96.46
2018-08-12T01:07:08.957Z,97.14
2018-08-12T01:10:11.801Z,96.82
2018-08-12T01:13:14.014Z,97.86
2018-08-12T01:16:16.234Z,98.51
2018-08-12T01:19:19.817Z,98.71
2018-08-12T01:22:22.134Z,97.27
2018-08-12T01:25:24.451Z,97.08
2018-08-12T01:28:26.910Z,97.09
2018-08-12T01:31:29.167Z,97.44
2018-08-12T01:34:31.396Z,97.50
2018-08-12T01:37:33.625Z,96.93
2018-08-12T01:40:35.814Z,97.47
2018-08-12T01:43:38.163Z,98.99
2018-08-12T01:46:40.447Z,99.02
2018-08-12T01:49:42.703Z,99.53
2018-08-12T01:52:44.966Z,99.35
2018-08-12T01:55:47.152Z,100.00
2018-08-12T01:58:49.464Z,99.58
2018-08-12T02:01:51.898Z,100.00
2018-08-12T02:04:54.084Z,100.00
2018-08-12T02:07:56.472Z,100.00
2018-08-12T02:10:58.829Z,100.00
2018-08-12T02:14:01.073Z,100.00
2018-08-12T02:17:03.403Z,100.00
2018-08-12T02:20:06.105Z,100.00
2018-08-12T02:23:09.223Z,100.00
2018-08-12T02:26:11.603Z,100.00
2018-08-12T02:29:13.918Z,99.74
2018-08-12T02:32:16.207Z,99.51
2018-08-12T02:35:18.541Z,99.77
2018-08-12T02:38:20.896Z,99.85
2018-08-12T02:41:23.186Z,99.96
2018-08-12T02:44:25.539Z,100.00
2018-08-12T02:47:29.044Z,100.00
2018-08-12T02:50:32.331Z,100.00
2018-08-12T02:53:34.712Z,100.00
2018-08-12T02:56:37.038Z,100.00
2018-08-12T02:59:39.508Z,100.00
2018-08-12T03:02:41.755Z,100.00
2018-08-12T03:05:44.091Z,100.00
2018-08-12T03:08:46.353Z,100.00
2018-08-12T03:11:48.567Z,100.00
2018-08-12T03:14:50.889Z,100.00
2018-08-12T03:17:53.202Z,100.00
2018-08-12T03:20:55.547Z,100.00
2018-08-12T03:23:58.162Z,100.00
2018-08-12T03:27:00.477Z,100.00
2018-08-12T03:30:02.893Z,100.00
2018-08-12T03:33:05.461Z,100.00
2018-08-12T03:36:07.764Z,100.00
2018-08-12T03:39:11.276Z,100.00
2018-08-12T03:42:13.625Z,100.00
2018-08-12T03:45:15.844Z,100.00
2018-08-12T03:48:18.233Z,100.00
2018-08-12T03:51:20.471Z,100.00
2018-08-12T03:54:22.831Z,100.00
2018-08-12T03:57:25.151Z,100.00
2018-08-12T04:00:27.436Z,100.00
2018-08-12T04:03:30.007Z,100.00
2018-08-12T04:06:32.288Z,100.00
2018-08-12T04:09:34.949Z,100.00
2018-08-12T04:12:37.550Z,100.00
2018-08-12T04:15:39.795Z,100.00
2018-08-12T04:18:42.157Z,100.00
2018-08-12T04:21:44.439Z,100.00
2018-08-12T04:24:46.662Z,100.00
2018-08-12T04:27:48.891Z,100.00
2018-08-12T04:30:51.121Z,100.00
2018-08-12T04:33:53.392Z,100.00
2018-08-12T04:36:55.644Z,100.00
2018-08-12T04:39:57.852Z,100.00
2018-08-12T04:43:00.145Z,100.00
2018-08-12T04:46:02.496Z,100.00
2018-08-12T04:49:04.980Z,100.00
2018-08-12T04:52:07.238Z,91.05
2018-08-12T04:55:09.445Z,80.32
2018-08-12T04:58:11.740Z,77.24
2018-08-12T05:01:13.990Z,78.35
2018-08-12T05:04:16.173Z,73.88
2018-08-12T05:07:18.370Z,70.18
2018-08-12T05:10:20.730Z,65.23
2018-08-12T05:13:23.166Z,65.34
2018-08-12T05:16:25.381Z,60.85
2018-08-12T05:19:27.691Z,66.15
2018-08-12T05:22:30.022Z,59.53
2018-08-12T05:25:32.525Z,58.79
2018-08-12T05:28:34.886Z,57.36
2018-08-12T05:31:37.203Z,55.84
2018-08-12T05:34:39.421Z,52.52
2018-08-12T05:37:42.315Z,49.66
2018-08-12T05:40:45.072Z,50.46
2018-08-12T05:43:47.990Z,50.91
2018-08-12T05:46:50.281Z,49.78
2018-08-12T05:49:53.535Z,54.68
2018-08-12T05:52:55.827Z,55.71
2018-08-12T05:55:58.058Z,54.71
2018-08-12T05:59:00.305Z,52.49
2018-08-12T06:02:02.697Z,52.77
2018-08-12T06:05:05.600Z,49.91
2018-08-12T06:08:07.970Z,54.20
2018-08-12T06:11:10.290Z,53.76
2018-08-12T06:14:13.717Z,51.59
2018-08-12T06:17:15.980Z,53.76
2018-08-12T06:20:18.300Z,53.35
2018-08-12T06:23:20.559Z,55.51
2018-08-12T06:26:22.901Z,58.91
2018-08-12T06:29:25.189Z,57.56
2018-08-12T06:32:27.389Z,59.31
2018-08-12T06:35:29.669Z,54.50
2018-08-12T06:38:32.589Z,56.36
2018-08-12T06:41:34.805Z,56.73
2018-08-12T06:44:37.132Z,52.70
2018-08-12T06:47:39.939Z,51.39
2018-08-12T06:50:42.232Z,50.49
2018-08-12T06:53:44.591Z,50.83
2018-08-12T06:56:46.782Z,48.26
2018-08-12T06:59:49.080Z,47.10
2018-08-12T07:02:51.358Z,46.92
2018-08-12T07:05:53.670Z,44.36
2018-08-12T07:08:55.973Z,41.33
2018-08-12T07:11:58.202Z,42.42
2018-08-12T07:15:00.469Z,44.19
2018-08-12T07:18:02.867Z,43.38
2018-08-12T07:21:05.235Z,44.43
2018-08-12T07:24:07.508Z,44.77
2018-08-12T07:27:09.768Z,47.30
2018-08-12T07:30:13.558Z,44.55
2018-08-12T07:33:15.892Z,45.80
2018-08-12T07:36:18.812Z,48.97
2018-08-12T07:39:21.025Z,48.06
2018-08-12T07:42:23.180Z,47.30
2018-08-12T07:45:25.490Z,48.19
2018-08-12T07:48:27.835Z,49.51
2018-08-12T07:51:30.116Z,47.53
2018-08-12T07:54:32.336Z,51.99
2018-08-12T07:57:34.672Z,52.78
2018-08-12T08:00:36.974Z,52.43
2018-08-12T08:03:39.180Z,53.95
2018-08-12T08:06:41.413Z,57.34
2018-08-12T08:09:43.611Z,58.52
2018-08-12T08:12:46.002Z,60.17
2018-08-12T08:15:48.333Z,60.06
2018-08-12T08:18:50.584Z,57.66
2018-08-12T08:21:52.867Z,58.69
2018-08-12T08:24:55.149Z,59.25
2018-08-12T08:27:57.342Z,59.10
2018-08-12T08:30:59.738Z,59.79
2018-08-12T08:34:01.973Z,58.42
2018-08-12T08:37:04.228Z,57.95
2018-08-12T08:40:08.740Z,57.17
2018-08-12T08:43:10.990Z,56.47
2018-08-12T08:46:13.461Z,55.40
2018-08-12T08:49:15.725Z,54.17
2018-08-12T08:52:22.165Z,51.97
2018-08-12T08:55:25.529Z,52.03
2018-08-12T08:58:27.776Z,51.53
2018-08-12T09:01:30.228Z,50.61
2018-08-12T09:04:32.398Z,48.11
2018-08-12T09:07:34.883Z,47.29
2018-08-12T09:10:37.212Z,48.28
2018-08-12T09:13:39.458Z,46.85
2018-08-12T09:16:44.126Z,46.00
2018-08-12T09:19:46.629Z,45.57
2018-08-12T09:22:48.916Z,45.53
2018-08-12T09:25:51.258Z,45.05
2018-08-12T09:28:53.740Z,44.67
2018-08-12T09:31:56.123Z,44.44
2018-08-12T09:34:58.489Z,43.78
2018-08-12T09:38:00.787Z,42.22
2018-08-12T09:41:03.070Z,43.44
2018-08-12T09:44:05.551Z,41.87
2018-08-12T09:47:07.820Z,42.73
2018-08-12T09:50:12.083Z,44.47
2018-08-12T09:53:14.320Z,44.27
2018-08-12T09:56:17.423Z,43.77
2018-08-12T09:59:19.709Z,43.81
2018-08-12T10:02:22.053Z,43.10
2018-08-12T10:05:24.382Z,43.17
2018-08-12T10:08:26.827Z,40.25
2018-08-12T10:11:29.255Z,39.64
2018-08-12T10:14:31.507Z,39.15
2018-08-12T10:17:34.116Z,39.83
2018-08-12T10:20:36.463Z,38.76
2018-08-12T10:23:38.739Z,40.03
2018-08-12T10:26:45.889Z,38.90
2018-08-12T10:29:48.287Z,39.58
2018-08-12T10:32:50.757Z,39.80
2018-08-12T10:35:53.080Z,39.79
2018-08-12T10:38:55.365Z,40.07
2018-08-12T10:41:57.665Z,39.62
2018-08-12T10:45:00.075Z,40.58
2018-08-12T10:48:02.626Z,38.99
2018-08-12T10:51:05.122Z,38.55
2018-08-12T10:54:07.523Z,39.46
2018-08-12T10:57:09.962Z,39.03
2018-08-12T11:00:20.736Z,39.83
2018-08-12T11:03:23.062Z,39.50
2018-08-12T11:06:25.475Z,38.92
2018-08-12T11:09:27.782Z,39.06
2018-08-12T11:12:30.360Z,38.62
2018-08-12T11:15:32.526Z,36.15
2018-08-12T11:18:35.355Z,37.44
2018-08-12T11:21:37.817Z,37.18
2018-08-12T11:24:43.971Z,37.10
2018-08-12T11:27:46.193Z,37.59
2018-08-12T11:30:48.554Z,36.16
2018-08-12T11:33:50.778Z,36.06
2018-08-12T11:36:53.212Z,36.67
2018-08-12T11:39:55.476Z,34.61
2018-08-12T11:42:57.954Z,34.76
2018-08-12T11:46:00.334Z,35.41
2018-08-12T11:49:03.849Z,34.59
2018-08-12T11:52:06.200Z,33.47
2018-08-12T11:55:10.524Z,33.10
2018-08-12T11:58:12.850Z,33.02
2018-08-12T12:01:15.220Z,34.61
2018-08-12T12:04:17.531Z,34.93
2018-08-12T12:07:19.740Z,35.10
2018-08-12T12:10:22.674Z,36.78
2018-08-12T12:13:24.986Z,36.50
2018-08-12T12:16:27.395Z,36.61
2018-08-12T12:19:29.685Z,37.59
2018-08-12T12:22:31.989Z,37.27
2018-08-12T12:25:34.373Z,36.44
2018-08-12T12:28:39.682Z,35.85
2018-08-12T12:31:42.108Z,35.32
2018-08-12T12:34:45.377Z,35.73
2018-08-12T12:37:47.794Z,37.69
2018-08-12T12:40:54.380Z,37.44
2018-08-12T12:46:52.860Z,36.45
2018-08-12T12:49:55.132Z,36.36
2018-08-12T12:52:57.477Z,35.57
2018-08-12T12:55:59.824Z,35.20
2018-08-12T12:59:02.234Z,37.29
2018-08-12T13:02:04.684Z,36.32
2018-08-12T13:05:09.125Z,36.41
2018-08-12T13:08:11.542Z,36.17
2018-08-12T13:11:15.727Z,35.96
2018-08-12T13:14:18.064Z,36.61
2018-08-12T13:17:20.348Z,36.29
2018-08-12T13:20:22.646Z,36.28
2018-08-12T13:23:25.049Z,36.04
2018-08-12T13:26:27.410Z,35.62
2018-08-12T13:29:29.658Z,35.49
2018-08-12T13:32:31.908Z,34.07
2018-08-12T13:35:34.460Z,33.54
2018-08-12T13:38:36.744Z,34.11
2018-08-12T13:41:39.045Z,33.20
2018-08-12T13:44:41.618Z,35.41
2018-08-12T13:47:44.710Z,34.17
2018-08-12T13:50:47.021Z,33.65
2018-08-12T13:53:50.600Z,34.62
2018-08-12T13:56:53.011Z,35.11
2018-08-12T13:59:55.393Z,35.83
2018-08-12T14:02:57.815Z,34.75
2018-08-12T14:06:00.072Z,34.92
2018-08-12T14:09:02.414Z,33.18
2018-08-12T14:12:04.725Z,33.50
2018-08-12T14:15:09.467Z,32.74
2018-08-12T14:18:11.857Z,32.08
2018-08-12T14:25:20.397Z,33.54
2018-08-12T14:28:22.579Z,34.38
2018-08-12T14:31:24.884Z,35.15
2018-08-12T14:34:27.217Z,34.01
2018-08-12T14:37:35.384Z,33.31
2018-08-12T14:40:39.078Z,33.33
2018-08-12T14:43:42.631Z,32.74
2018-08-12T14:46:45.033Z,32.33
2018-08-12T14:49:47.388Z,32.55
2018-08-12T14:52:51.010Z,34.77
2018-08-12T14:55:54.544Z,33.53
2018-08-12T14:58:57.032Z,33.21
2018-08-12T15:02:09.972Z,34.44
2018-08-12T15:05:14.651Z,33.77
2018-08-12T15:08:17.680Z,34.02
2018-08-12T15:11:28.003Z,33.63
2018-08-12T15:14:30.373Z,31.23
2018-08-12T15:17:32.653Z,32.10
2018-08-12T15:20:35.722Z,32.87
2018-08-12T15:23:38.075Z,32.04
2018-08-12T15:26:41.559Z,32.99
2018-08-12T15:29:51.947Z,33.25
2018-08-12T15:32:55.175Z,32.81
2018-08-12T15:35:59.205Z,32.68
2018-08-12T15:39:01.636Z,33.09
2018-08-12T15:42:04.030Z,31.66
2018-08-12T15:45:08.347Z,32.57
2018-08-12T15:48:10.651Z,31.46
2018-08-12T15:51:19.680Z,31.97
2018-08-12T15:54:22.042Z,32.13
2018-08-12T15:57:24.328Z,32.45
2018-08-12T16:00:26.601Z,33.39
2018-08-12T16:03:29.028Z,32.87
2018-08-12T16:06:31.259Z,32.95
2018-08-12T16:09:34.151Z,33.78
2018-08-12T16:12:36.624Z,34.65
2018-08-12T16:15:38.837Z,34.04
2018-08-12T16:18:41.318Z,34.58
2018-08-12T16:21:43.671Z,34.57
2018-08-12T16:24:46.053Z,34.94
2018-08-12T16:27:48.979Z,34.50
2018-08-12T16:30:51.330Z,35.02
2018-08-12T16:33:55.530Z,34.47
2018-08-12T16:37:07.333Z,35.89
2018-08-12T16:40:11.615Z,36.41
2018-08-12T16:43:13.936Z,37.43
2018-08-12T16:46:16.255Z,38.07
2018-08-12T16:49:18.547Z,37.91
2018-08-12T16:52:20.895Z,37.65
2018-08-12T16:55:23.169Z,37.22
2018-08-12T16:58:25.380Z,37.81
2018-08-12T17:01:27.733Z,37.24
2018-08-12T17:04:30.025Z,36.86
2018-08-12T17:07:32.354Z,36.57
2018-08-12T17:10:34.618Z,37.61
2018-08-12T17:13:36.805Z,38.29
2018-08-12T17:16:39.014Z,38.95
2018-08-12T17:19:41.361Z,39.53
2018-08-12T17:22:44.245Z,40.25
2018-08-12T17:25:46.646Z,40.39
2018-08-12T17:28:48.785Z,38.91
2018-08-12T17:31:51.054Z,38.77
2018-08-12T17:34:53.244Z,39.56
2018-08-12T17:37:56.437Z,40.12
2018-08-12T17:40:58.910Z,41.03
2018-08-12T17:44:01.200Z,42.25
2018-08-12T17:47:03.485Z,43.13
2018-08-12T17:50:06.406Z,43.53
2018-08-12T17:53:08.636Z,44.06
2018-08-12T17:56:10.996Z,43.98
2018-08-12T17:59:13.250Z,45.28
2018-08-12T18:02:15.455Z,45.61
2018-08-12T18:05:17.861Z,45.96
2018-08-12T18:08:20.145Z,46.50
2018-08-12T18:11:22.433Z,46.99
2018-08-12T18:14:25.726Z,47.57
2018-08-12T18:17:28.127Z,46.56
2018-08-12T18:20:31.517Z,44.70
2018-08-12T18:23:33.874Z,44.33
2018-08-12T18:26:36.283Z,43.61
2018-08-12T18:29:38.816Z,43.53
2018-08-12T18:32:41.246Z,44.06
2018-08-12T18:35:43.535Z,45.56
2018-08-12T18:38:46.750Z,47.13
2018-08-12T18:41:49.101Z,48.07
2018-08-12T18:44:52.209Z,49.32
2018-08-12T18:47:54.551Z,50.78
2018-08-12T18:50:56.944Z,51.51
2018-08-12T18:53:59.318Z,52.35
2018-08-12T18:57:02.930Z,52.95
2018-08-12T19:00:06.983Z,53.73
2018-08-12T19:03:09.346Z,54.38
2018-08-12T19:06:11.678Z,55.35
2018-08-12T19:09:13.977Z,56.37
2018-08-12T19:12:16.254Z,56.50
2018-08-12T19:15:20.283Z,57.45
2018-08-12T19:18:22.619Z,58.18
2018-08-12T19:21:24.996Z,57.91
2018-08-12T19:24:27.265Z,59.76
2018-08-12T19:27:29.686Z,60.60
2018-08-12T19:30:31.860Z,60.33
2018-08-12T19:33:34.133Z,60.76
2018-08-12T19:36:36.393Z,62.39
2018-08-12T19:39:38.633Z,62.33
2018-08-12T19:42:41.101Z,63.35
2018-08-12T19:45:43.374Z,63.18
2018-08-12T19:48:45.744Z,62.45
2018-08-12T19:51:48.074Z,64.24
2018-08-12T19:54:50.445Z,64.31
2018-08-12T19:57:53.447Z,64.53
2018-08-12T20:00:55.688Z,65.86
2018-08-12T20:03:57.964Z,67.06
2018-08-12T20:07:00.613Z,68.25
2018-08-12T20:10:03.237Z,67.49
2018-08-12T20:13:05.813Z,68.26
2018-08-12T20:16:08.366Z,68.34
2018-08-12T20:19:10.806Z,69.50
2018-08-12T20:22:14.902Z,68.76
2018-08-12T20:25:17.179Z,69.76
2018-08-12T20:28:19.499Z,70.12
2018-08-12T20:31:21.894Z,71.68
2018-08-12T20:34:24.196Z,70.99
2018-08-12T20:37:26.851Z,71.82
2018-08-12T20:40:29.277Z,71.97
2018-08-12T20:43:31.550Z,72.63
2018-08-12T20:46:33.801Z,74.43
2018-08-12T20:49:36.152Z,74.47
2018-08-12T20:52:38.333Z,74.59
2018-08-12T20:55:40.645Z,75.55
2018-08-12T20:58:43.102Z,75.16
2018-08-12T21:01:45.372Z,74.28
2018-08-12T21:04:47.577Z,74.68
2018-08-12T21:07:49.867Z,74.52
2018-08-12T21:10:53.852Z,75.62
2018-08-12T21:13:56.146Z,75.79
2018-08-12T21:16:58.526Z,75.10
2018-08-12T21:20:00.820Z,74.25
2018-08-12T21:23:03.296Z,76.12
2018-08-12T21:26:05.623Z,77.50
2018-08-12T21:29:09.605Z,76.60
2018-08-12T21:32:11.904Z,77.01
2018-08-12T21:35:14.210Z,77.37
2018-08-12T21:38:16.492Z,78.39
2018-08-12T21:41:18.736Z,78.06
2018-08-12T21:44:21.031Z,77.63
2018-08-12T21:47:23.333Z,77.89
2018-08-12T21:50:25.681Z,78.70
2018-08-12T21:53:28.024Z,78.56
2018-08-12T21:56:30.298Z,79.78
2018-08-12T21:59:32.565Z,80.14
2018-08-12T22:02:34.866Z,79.89
2018-08-12T22:05:38.122Z,80.52
2018-08-12T22:08:40.431Z,80.28
2018-08-12T22:11:42.692Z,81.06
2018-08-12T22:14:44.984Z,81.46
2018-08-12T22:17:47.264Z,81.88
2018-08-12T22:20:49.528Z,80.82
2018-08-12T22:23:51.860Z,83.32
2018-08-12T22:26:54.103Z,82.87
2018-08-12T22:29:56.350Z,82.68
2018-08-12T22:32:58.713Z,82.35
2018-08-12T22:36:00.962Z,82.22
2018-08-12T22:39:05.009Z,82.69
2018-08-12T22:42:07.291Z,83.63
2018-08-12T22:45:10.757Z,83.27
2018-08-12T22:48:13.036Z,82.05
2018-08-12T22:51:15.356Z,81.50
2018-08-12T22:54:17.608Z,81.55
2018-08-12T22:57:19.964Z,82.23
2018-08-12T23:00:22.217Z,81.81
2018-08-12T23:03:24.538Z,83.28
2018-08-12T23:06:26.870Z,84.38
2018-08-12T23:09:29.821Z,84.20
2018-08-12T23:12:32.113Z,84.75
2018-08-12T23:16:11.580Z,85.70
2018-08-12T23:19:13.968Z,86.51
2018-08-12T23:22:16.229Z,86.46
2018-08-12T23:25:19.545Z,85.03
2018-08-12T23:28:21.765Z,85.80
2018-08-12T23:31:24.098Z,85.51
2018-08-12T23:34:26.484Z,86.27
2018-08-12T23:37:28.836Z,87.04
2018-08-12T23:40:31.114Z,86.47
2018-08-12T23:43:33.417Z,86.35
2018-08-12T23:46:35.709Z,85.98
2018-08-12T23:49:38.014Z,86.92
2018-08-12T23:52:40.236Z,87.10
2018-08-12T23:55:42.680Z,87.30
2018-08-12T23:58:45.034Z,87.64
